sensor_id;sensor_type;location;lat;lon;timestamp;P1;durP1;ratioP1;P2;durP2;ratioP2
1062;SDS011;520;50.932;6.962;2022-10-16T00:00:25;3.77;;;2.10;;
1062;SDS011;520;50.932;6.962;2022-10-16T00:03:11;2.17;;;1.97;;
1062;SDS011;520;50.932;6.962;2022-10-16T00:06:01;1.80;;;1.70;;
1062;SDS011;520;50.932;6.962;2022-10-16T00:08:51;1.73;;;1.60;;
1062;SDS011;520;50.932;6.962;2022-10-16T00:15:04;1.80;;;1.70;;
1062;SDS011;520;50.932;6.962;2022-10-16T00:18:00;1.73;;;1.50;;
1062;SDS011;520;50.932;6.962;2022-10-16T00:21:23;4.20;;;1.80;;
1062;SDS011;520;50.932;6.962;2022-10-16T00:24:13;2.17;;;1.70;;
1062;SDS011;520;50.932;6.962;2022-10-16T00:27:19;1.50;;;1.40;;
1062;SDS011;520;50.932;6.962;2022-10-16T00:30:34;1.30;;;1.20;;
1062;SDS011;520;50.932;6.962;2022-10-16T00:33:35;1.93;;;1.37;;
1062;SDS011;520;50.932;6.962;2022-10-16T00:36:23;2.70;;;1.30;;
1062;SDS011;520;50.932;6.962;2022-10-16T00:39:36;1.70;;;1.20;;
1062;SDS011;520;50.932;6.962;2022-10-16T00:42:44;1.20;;;1.10;;
1062;SDS011;520;50.932;6.962;2022-10-16T00:45:57;1.60;;;1.50;;
1062;SDS011;520;50.932;6.962;2022-10-16T00:48:55;1.60;;;1.50;;
1062;SDS011;520;50.932;6.962;2022-10-16T00:52:08;2.13;;;1.77;;
1062;SDS011;520;50.932;6.962;2022-10-16T00:54:44;1.67;;;1.57;;
1062;SDS011;520;50.932;6.962;2022-10-16T01:01:14;1.40;;;1.20;;
1062;SDS011;520;50.932;6.962;2022-10-16T01:04:21;3.23;;;1.67;;
1062;SDS011;520;50.932;6.962;2022-10-16T01:14:50;1.33;;;1.23;;
1062;SDS011;520;50.932;6.962;2022-10-16T01:17:53;8.10;;;2.27;;
1062;SDS011;520;50.932;6.962;2022-10-16T01:27:25;1.80;;;1.63;;
1062;SDS011;520;50.932;6.962;2022-10-16T01:30:29;1.90;;;1.67;;
1062;SDS011;520;50.932;6.962;2022-10-16T01:38:31;1.73;;;1.63;;
1062;SDS011;520;50.932;6.962;2022-10-16T01:48:12;1.70;;;1.60;;
1062;SDS011;520;50.932;6.962;2022-10-16T01:51:05;2.47;;;1.70;;
1062;SDS011;520;50.932;6.962;2022-10-16T01:53:53;3.77;;;1.53;;
1062;SDS011;520;50.932;6.962;2022-10-16T01:56:34;1.50;;;1.40;;
1062;SDS011;520;50.932;6.962;2022-10-16T01:59:50;1.60;;;1.50;;
1062;SDS011;520;50.932;6.962;2022-10-16T02:02:38;1.90;;;1.80;;
1062;SDS011;520;50.932;6.962;2022-10-16T02:06:00;1.30;;;1.20;;
1062;SDS011;520;50.932;6.962;2022-10-16T02:11:29;2.60;;;2.40;;
1062;SDS011;520;50.932;6.962;2022-10-16T02:14:42;2.30;;;1.60;;
1062;SDS011;520;50.932;6.962;2022-10-16T02:17:29;1.93;;;1.83;;
1062;SDS011;520;50.932;6.962;2022-10-16T02:20:06;1.40;;;1.30;;
1062;SDS011;520;50.932;6.962;2022-10-16T02:23:10;1.70;;;1.60;;
1062;SDS011;520;50.932;6.962;2022-10-16T02:25:58;2.20;;;1.30;;
1062;SDS011;520;50.932;6.962;2022-10-16T02:29:08;1.30;;;1.20;;
1062;SDS011;520;50.932;6.962;2022-10-16T02:32:10;1.40;;;1.30;;
1062;SDS011;520;50.932;6.962;2022-10-16T02:35:50;1.53;;;1.43;;
1062;SDS011;520;50.932;6.962;2022-10-16T02:38:57;1.30;;;1.20;;
1062;SDS011;520;50.932;6.962;2022-10-16T02:42:17;1.80;;;1.70;;
1062;SDS011;520;50.932;6.962;2022-10-16T02:51:19;1.70;;;1.47;;
1062;SDS011;520;50.932;6.962;2022-10-16T02:54:07;3.07;;;1.30;;
1062;SDS011;520;50.932;6.962;2022-10-16T03:00:45;1.47;;;1.10;;
1062;SDS011;520;50.932;6.962;2022-10-16T03:03:51;1.70;;;1.57;;
1062;SDS011;520;50.932;6.962;2022-10-16T03:06:38;1.00;;;0.90;;
1062;SDS011;520;50.932;6.962;2022-10-16T03:09:44;1.00;;;0.97;;
1062;SDS011;520;50.932;6.962;2022-10-16T03:12:59;2.50;;;1.33;;
1062;SDS011;520;50.932;6.962;2022-10-16T03:15:56;1.67;;;1.00;;
1062;SDS011;520;50.932;6.962;2022-10-16T03:18:50;2.90;;;1.20;;
1062;SDS011;520;50.932;6.962;2022-10-16T03:21:37;5.10;;;1.37;;
1062;SDS011;520;50.932;6.962;2022-10-16T03:24:35;1.27;;;0.80;;
1062;SDS011;520;50.932;6.962;2022-10-16T03:27:40;1.33;;;1.23;;
1062;SDS011;520;50.932;6.962;2022-10-16T03:33:42;1.17;;;1.07;;
1062;SDS011;520;50.932;6.962;2022-10-16T03:36:31;2.17;;;1.67;;
1062;SDS011;520;50.932;6.962;2022-10-16T03:39:07;1.53;;;1.10;;
1062;SDS011;520;50.932;6.962;2022-10-16T03:42:13;1.47;;;1.07;;
1062;SDS011;520;50.932;6.962;2022-10-16T03:44:57;1.57;;;1.10;;
1062;SDS011;520;50.932;6.962;2022-10-16T03:50:44;4.20;;;1.30;;
1062;SDS011;520;50.932;6.962;2022-10-16T03:53:56;3.50;;;1.20;;
1062;SDS011;520;50.932;6.962;2022-10-16T03:57:14;1.63;;;1.23;;
1062;SDS011;520;50.932;6.962;2022-10-16T04:00:35;1.37;;;1.27;;
1062;SDS011;520;50.932;6.962;2022-10-16T04:03:20;1.30;;;1.20;;
1062;SDS011;520;50.932;6.962;2022-10-16T04:06:32;1.33;;;1.10;;
1062;SDS011;520;50.932;6.962;2022-10-16T04:09:32;1.80;;;1.40;;
1062;SDS011;520;50.932;6.962;2022-10-16T04:12:19;1.33;;;1.23;;
1062;SDS011;520;50.932;6.962;2022-10-16T04:15:11;1.53;;;1.43;;
1062;SDS011;520;50.932;6.962;2022-10-16T04:21:17;1.90;;;1.00;;
1062;SDS011;520;50.932;6.962;2022-10-16T04:24:10;1.20;;;1.10;;
1062;SDS011;520;50.932;6.962;2022-10-16T04:30:29;2.00;;;1.37;;
1062;SDS011;520;50.932;6.962;2022-10-16T04:33:38;1.47;;;1.00;;
1062;SDS011;520;50.932;6.962;2022-10-16T04:36:41;1.30;;;1.03;;
1062;SDS011;520;50.932;6.962;2022-10-16T04:39:40;2.40;;;1.30;;
1062;SDS011;520;50.932;6.962;2022-10-16T04:42:26;1.53;;;1.30;;
1062;SDS011;520;50.932;6.962;2022-10-16T04:44:59;4.33;;;1.60;;
1062;SDS011;520;50.932;6.962;2022-10-16T04:54:24;1.73;;;1.17;;
1062;SDS011;520;50.932;6.962;2022-10-16T04:57:41;2.73;;;1.00;;
1062;SDS011;520;50.932;6.962;2022-10-16T05:00:43;2.93;;;1.73;;
1062;SDS011;520;50.932;6.962;2022-10-16T05:03:34;1.80;;;1.37;;
1062;SDS011;520;50.932;6.962;2022-10-16T05:07:11;1.43;;;1.20;;
1062;SDS011;520;50.932;6.962;2022-10-16T05:10:17;2.00;;;1.60;;
1062;SDS011;520;50.932;6.962;2022-10-16T05:13:34;2.27;;;1.43;;
1062;SDS011;520;50.932;6.962;2022-10-16T05:16:31;1.83;;;1.27;;
1062;SDS011;520;50.932;6.962;2022-10-16T05:19:27;1.17;;;1.03;;
1062;SDS011;520;50.932;6.962;2022-10-16T05:22:31;1.57;;;1.37;;
1062;SDS011;520;50.932;6.962;2022-10-16T05:25:13;1.20;;;1.10;;
1062;SDS011;520;50.932;6.962;2022-10-16T05:27:52;1.30;;;1.20;;
1062;SDS011;520;50.932;6.962;2022-10-16T05:30:44;1.80;;;1.23;;
1062;SDS011;520;50.932;6.962;2022-10-16T05:33:35;1.47;;;1.10;;
1062;SDS011;520;50.932;6.962;2022-10-16T05:36:38;1.93;;;1.17;;
1062;SDS011;520;50.932;6.962;2022-10-16T05:39:45;1.30;;;1.20;;
1062;SDS011;520;50.932;6.962;2022-10-16T05:42:41;4.70;;;1.70;;
1062;SDS011;520;50.932;6.962;2022-10-16T05:46:10;1.40;;;1.30;;
1062;SDS011;520;50.932;6.962;2022-10-16T05:48:42;1.60;;;1.50;;
1062;SDS011;520;50.932;6.962;2022-10-16T05:58:04;1.83;;;1.40;;
1062;SDS011;520;50.932;6.962;2022-10-16T06:00:52;1.70;;;1.60;;
1062;SDS011;520;50.932;6.962;2022-10-16T06:04:16;3.20;;;1.40;;
1062;SDS011;520;50.932;6.962;2022-10-16T06:06:49;2.10;;;1.50;;
1062;SDS011;520;50.932;6.962;2022-10-16T06:09:49;1.63;;;1.53;;
1062;SDS011;520;50.932;6.962;2022-10-16T06:12:32;1.90;;;1.43;;
1062;SDS011;520;50.932;6.962;2022-10-16T06:15:27;2.00;;;1.70;;
1062;SDS011;520;50.932;6.962;2022-10-16T06:22:11;1.87;;;1.77;;
1062;SDS011;520;50.932;6.962;2022-10-16T06:25:15;1.90;;;1.80;;
1062;SDS011;520;50.932;6.962;2022-10-16T06:39:30;2.40;;;1.70;;
1062;SDS011;520;50.932;6.962;2022-10-16T06:42:52;2.20;;;2.00;;
1062;SDS011;520;50.932;6.962;2022-10-16T06:46:19;1.87;;;1.77;;
1062;SDS011;520;50.932;6.962;2022-10-16T06:53:25;2.60;;;1.80;;
1062;SDS011;520;50.932;6.962;2022-10-16T06:56:29;1.77;;;1.63;;
1062;SDS011;520;50.932;6.962;2022-10-16T06:59:27;2.80;;;2.10;;
1062;SDS011;520;50.932;6.962;2022-10-16T07:02:50;1.70;;;1.53;;
1062;SDS011;520;50.932;6.962;2022-10-16T07:06:07;1.80;;;1.47;;
1062;SDS011;520;50.932;6.962;2022-10-16T07:13:02;2.33;;;2.03;;
1062;SDS011;520;50.932;6.962;2022-10-16T07:16:37;2.47;;;1.53;;
1062;SDS011;520;50.932;6.962;2022-10-16T07:19:24;1.70;;;1.60;;
1062;SDS011;520;50.932;6.962;2022-10-16T07:22:10;1.87;;;1.73;;
1062;SDS011;520;50.932;6.962;2022-10-16T07:25:14;2.00;;;1.90;;
1062;SDS011;520;50.932;6.962;2022-10-16T07:28:07;3.30;;;2.53;;
1062;SDS011;520;50.932;6.962;2022-10-16T07:31:07;1.90;;;1.80;;
1062;SDS011;520;50.932;6.962;2022-10-16T07:34:15;5.67;;;3.90;;
1062;SDS011;520;50.932;6.962;2022-10-16T07:41:52;1.83;;;1.57;;
1062;SDS011;520;50.932;6.962;2022-10-16T07:49:32;2.20;;;1.17;;
1062;SDS011;520;50.932;6.962;2022-10-16T07:56:08;1.97;;;1.80;;
1062;SDS011;520;50.932;6.962;2022-10-16T08:00:00;1.70;;;1.60;;
1062;SDS011;520;50.932;6.962;2022-10-16T08:06:48;1.80;;;1.63;;
1062;SDS011;520;50.932;6.962;2022-10-16T08:13:10;1.50;;;1.40;;
1062;SDS011;520;50.932;6.962;2022-10-16T08:16:37;2.20;;;1.60;;
1062;SDS011;520;50.932;6.962;2022-10-16T08:19:59;1.90;;;1.50;;
1062;SDS011;520;50.932;6.962;2022-10-16T08:23:21;2.20;;;1.57;;
1062;SDS011;520;50.932;6.962;2022-10-16T08:33:55;1.33;;;1.23;;
1062;SDS011;520;50.932;6.962;2022-10-16T08:36:57;1.10;;;1.10;;
1062;SDS011;520;50.932;6.962;2022-10-16T08:40:06;1.80;;;1.10;;
1062;SDS011;520;50.932;6.962;2022-10-16T08:51:15;1.00;;;1.00;;
1062;SDS011;520;50.932;6.962;2022-10-16T08:54:42;1.20;;;0.90;;
1062;SDS011;520;50.932;6.962;2022-10-16T09:02:08;1.03;;;0.80;;
1062;SDS011;520;50.932;6.962;2022-10-16T09:05:20;1.23;;;0.80;;
1062;SDS011;520;50.932;6.962;2022-10-16T09:11:52;0.83;;;0.73;;
1062;SDS011;520;50.932;6.962;2022-10-16T09:18:28;0.90;;;0.70;;
1062;SDS011;520;50.932;6.962;2022-10-16T09:21:36;1.20;;;0.70;;
1062;SDS011;520;50.932;6.962;2022-10-16T09:28:48;1.13;;;1.10;;
1062;SDS011;520;50.932;6.962;2022-10-16T09:38:03;0.87;;;0.83;;
1062;SDS011;520;50.932;6.962;2022-10-16T09:59:08;1.00;;;0.80;;
1062;SDS011;520;50.932;6.962;2022-10-16T10:02:11;0.97;;;0.60;;
1062;SDS011;520;50.932;6.962;2022-10-16T10:05:28;0.80;;;0.70;;
1062;SDS011;520;50.932;6.962;2022-10-16T10:08:23;0.77;;;0.70;;
1062;SDS011;520;50.932;6.962;2022-10-16T10:14:53;0.90;;;0.70;;
1062;SDS011;520;50.932;6.962;2022-10-16T10:18:37;1.77;;;1.63;;
1062;SDS011;520;50.932;6.962;2022-10-16T10:28:49;1.67;;;0.57;;
1062;SDS011;520;50.932;6.962;2022-10-16T10:32:06;0.97;;;0.70;;
1062;SDS011;520;50.932;6.962;2022-10-16T10:42:32;0.90;;;0.50;;
1062;SDS011;520;50.932;6.962;2022-10-16T10:46:10;2.90;;;1.00;;
1062;SDS011;520;50.932;6.962;2022-10-16T11:09:57;2.53;;;0.57;;
1062;SDS011;520;50.932;6.962;2022-10-16T11:20:13;1.00;;;0.70;;
1062;SDS011;520;50.932;6.962;2022-10-16T11:23:59;1.20;;;0.57;;
1062;SDS011;520;50.932;6.962;2022-10-16T11:27:12;0.60;;;0.60;;
1062;SDS011;520;50.932;6.962;2022-10-16T11:30:11;1.77;;;0.80;;
1062;SDS011;520;50.932;6.962;2022-10-16T11:33:23;1.60;;;0.60;;
1062;SDS011;520;50.932;6.962;2022-10-16T11:36:35;0.70;;;0.60;;
1062;SDS011;520;50.932;6.962;2022-10-16T11:39:32;1.23;;;0.70;;
1062;SDS011;520;50.932;6.962;2022-10-16T11:55:42;0.80;;;0.50;;
1062;SDS011;520;50.932;6.962;2022-10-16T12:08:36;1.57;;;0.60;;
1062;SDS011;520;50.932;6.962;2022-10-16T12:14:39;0.90;;;0.50;;
1062;SDS011;520;50.932;6.962;2022-10-16T12:18:04;1.00;;;0.90;;
1062;SDS011;520;50.932;6.962;2022-10-16T12:21:33;1.07;;;0.53;;
1062;SDS011;520;50.932;6.962;2022-10-16T12:35:42;1.23;;;0.70;;
1062;SDS011;520;50.932;6.962;2022-10-16T12:38:57;1.73;;;1.00;;
1062;SDS011;520;50.932;6.962;2022-10-16T12:43:10;2.60;;;1.00;;
1062;SDS011;520;50.932;6.962;2022-10-16T12:53:29;0.73;;;0.63;;
1062;SDS011;520;50.932;6.962;2022-10-16T13:03:54;1.63;;;0.80;;
1062;SDS011;520;50.932;6.962;2022-10-16T13:32:06;0.60;;;0.60;;
1062;SDS011;520;50.932;6.962;2022-10-16T13:35:03;1.27;;;0.80;;
1062;SDS011;520;50.932;6.962;2022-10-16T13:41:49;0.70;;;0.53;;
1062;SDS011;520;50.932;6.962;2022-10-16T13:48:42;0.80;;;0.70;;
1062;SDS011;520;50.932;6.962;2022-10-16T13:55:22;1.47;;;0.70;;
1062;SDS011;520;50.932;6.962;2022-10-16T14:04:28;2.10;;;0.60;;
1062;SDS011;520;50.932;6.962;2022-10-16T14:07:33;1.03;;;0.77;;
1062;SDS011;520;50.932;6.962;2022-10-16T14:10:30;0.80;;;0.60;;
1062;SDS011;520;50.932;6.962;2022-10-16T14:13:50;0.60;;;0.60;;
1062;SDS011;520;50.932;6.962;2022-10-16T14:20:00;1.90;;;0.70;;
1062;SDS011;520;50.932;6.962;2022-10-16T14:36:46;1.07;;;0.83;;
1062;SDS011;520;50.932;6.962;2022-10-16T14:49:35;1.00;;;0.70;;
1062;SDS011;520;50.932;6.962;2022-10-16T15:26:58;2.70;;;1.30;;
1062;SDS011;520;50.932;6.962;2022-10-16T15:30:16;0.90;;;0.70;;
1062;SDS011;520;50.932;6.962;2022-10-16T15:33:25;0.70;;;0.70;;
1062;SDS011;520;50.932;6.962;2022-10-16T15:36:13;0.80;;;0.70;;
1062;SDS011;520;50.932;6.962;2022-10-16T15:39:02;1.27;;;0.83;;
1062;SDS011;520;50.932;6.962;2022-10-16T15:42:09;1.10;;;0.90;;
1062;SDS011;520;50.932;6.962;2022-10-16T15:53:13;1.93;;;1.00;;
1062;SDS011;520;50.932;6.962;2022-10-16T16:27:37;0.90;;;0.90;;
1062;SDS011;520;50.932;6.962;2022-10-16T17:05:20;3.10;;;1.27;;
1062;SDS011;520;50.932;6.962;2022-10-16T18:14:10;1.43;;;1.30;;
1062;SDS011;520;50.932;6.962;2022-10-16T18:21:42;2.13;;;1.77;;
1062;SDS011;520;50.932;6.962;2022-10-16T18:24:54;2.30;;;1.50;;
1062;SDS011;520;50.932;6.962;2022-10-16T18:39:21;1.60;;;1.50;;
1062;SDS011;520;50.932;6.962;2022-10-16T18:50:09;2.40;;;1.50;;
1062;SDS011;520;50.932;6.962;2022-10-16T18:56:50;1.43;;;1.10;;
1062;SDS011;520;50.932;6.962;2022-10-16T19:15:48;3.10;;;1.47;;
1062;SDS011;520;50.932;6.962;2022-10-16T19:18:48;2.70;;;1.57;;
1062;SDS011;520;50.932;6.962;2022-10-16T19:22:02;1.60;;;1.50;;
1062;SDS011;520;50.932;6.962;2022-10-16T19:25:48;1.40;;;1.30;;
1062;SDS011;520;50.932;6.962;2022-10-16T19:28:45;2.87;;;1.53;;
1062;SDS011;520;50.932;6.962;2022-10-16T19:31:39;2.77;;;1.60;;
1062;SDS011;520;50.932;6.962;2022-10-16T19:34:42;1.57;;;1.27;;
1062;SDS011;520;50.932;6.962;2022-10-16T19:37:47;2.37;;;1.90;;
1062;SDS011;520;50.932;6.962;2022-10-16T19:40:43;4.73;;;2.10;;
1062;SDS011;520;50.932;6.962;2022-10-16T19:43:58;2.20;;;1.97;;
1062;SDS011;520;50.932;6.962;2022-10-16T19:47:21;1.87;;;1.50;;
1062;SDS011;520;50.932;6.962;2022-10-16T19:50:10;3.00;;;1.80;;
1062;SDS011;520;50.932;6.962;2022-10-16T19:52:51;2.00;;;1.57;;
1062;SDS011;520;50.932;6.962;2022-10-16T19:55:45;3.00;;;2.70;;
1062;SDS011;520;50.932;6.962;2022-10-16T19:58:38;2.30;;;2.17;;
1062;SDS011;520;50.932;6.962;2022-10-16T20:05:26;3.70;;;1.80;;
1062;SDS011;520;50.932;6.962;2022-10-16T20:08:34;2.80;;;1.90;;
1062;SDS011;520;50.932;6.962;2022-10-16T20:21:32;2.20;;;1.97;;
1062;SDS011;520;50.932;6.962;2022-10-16T20:30:50;5.33;;;2.10;;
1062;SDS011;520;50.932;6.962;2022-10-16T20:37:46;2.30;;;2.10;;
1062;SDS011;520;50.932;6.962;2022-10-16T20:44:13;4.30;;;3.27;;
1062;SDS011;520;50.932;6.962;2022-10-16T20:47:18;2.50;;;2.20;;
1062;SDS011;520;50.932;6.962;2022-10-16T20:49:55;2.70;;;2.50;;
1062;SDS011;520;50.932;6.962;2022-10-16T20:56:35;2.57;;;2.37;;
1062;SDS011;520;50.932;6.962;2022-10-16T20:59:46;5.17;;;3.73;;
1062;SDS011;520;50.932;6.962;2022-10-16T21:02:29;6.23;;;3.57;;
1062;SDS011;520;50.932;6.962;2022-10-16T21:04:58;3.30;;;3.00;;
1062;SDS011;520;50.932;6.962;2022-10-16T21:07:34;3.20;;;2.47;;
1062;SDS011;520;50.932;6.962;2022-10-16T21:10:11;3.27;;;3.00;;
1062;SDS011;520;50.932;6.962;2022-10-16T21:13:14;3.37;;;2.70;;
1062;SDS011;520;50.932;6.962;2022-10-16T21:15:45;3.90;;;2.80;;
1062;SDS011;520;50.932;6.962;2022-10-16T21:18:15;3.17;;;2.87;;
1062;SDS011;520;50.932;6.962;2022-10-16T21:20:45;3.33;;;2.83;;
1062;SDS011;520;50.932;6.962;2022-10-16T21:23:15;3.63;;;3.20;;
1062;SDS011;520;50.932;6.962;2022-10-16T21:25:48;2.90;;;2.70;;
1062;SDS011;520;50.932;6.962;2022-10-16T21:28:21;3.00;;;2.80;;
1062;SDS011;520;50.932;6.962;2022-10-16T21:30:49;4.67;;;3.40;;
1062;SDS011;520;50.932;6.962;2022-10-16T21:33:18;3.83;;;3.53;;
1062;SDS011;520;50.932;6.962;2022-10-16T21:35:45;4.20;;;3.63;;
1062;SDS011;520;50.932;6.962;2022-10-16T21:38:18;3.23;;;2.93;;
1062;SDS011;520;50.932;6.962;2022-10-16T21:40:48;4.30;;;3.63;;
1062;SDS011;520;50.932;6.962;2022-10-16T21:43:18;2.80;;;2.60;;
1062;SDS011;520;50.932;6.962;2022-10-16T21:45:52;4.00;;;3.47;;
1062;SDS011;520;50.932;6.962;2022-10-16T21:48:31;4.07;;;3.20;;
1062;SDS011;520;50.932;6.962;2022-10-16T21:51:05;3.93;;;3.53;;
1062;SDS011;520;50.932;6.962;2022-10-16T21:53:37;3.87;;;3.57;;
1062;SDS011;520;50.932;6.962;2022-10-16T21:56:12;3.60;;;3.30;;
1062;SDS011;520;50.932;6.962;2022-10-16T21:58:47;3.50;;;3.23;;
1062;SDS011;520;50.932;6.962;2022-10-16T22:01:18;3.20;;;3.00;;
1062;SDS011;520;50.932;6.962;2022-10-16T22:03:56;5.87;;;3.70;;
1062;SDS011;520;50.932;6.962;2022-10-16T22:10:11;4.27;;;3.97;;
1062;SDS011;520;50.932;6.962;2022-10-16T22:13:37;4.47;;;4.07;;
1062;SDS011;520;50.932;6.962;2022-10-16T22:16:54;4.47;;;3.73;;
1062;SDS011;520;50.932;6.962;2022-10-16T22:19:44;6.20;;;4.00;;
1062;SDS011;520;50.932;6.962;2022-10-16T22:23:02;3.97;;;3.67;;
1062;SDS011;520;50.932;6.962;2022-10-16T22:25:50;4.40;;;3.60;;
1062;SDS011;520;50.932;6.962;2022-10-16T22:29:05;4.30;;;3.90;;
1062;SDS011;520;50.932;6.962;2022-10-16T22:32:37;5.03;;;3.90;;
1062;SDS011;520;50.932;6.962;2022-10-16T22:35:59;4.80;;;4.30;;
1062;SDS011;520;50.932;6.962;2022-10-16T22:38:58;4.60;;;4.27;;
1062;SDS011;520;50.932;6.962;2022-10-16T22:41:31;7.83;;;5.20;;
1062;SDS011;520;50.932;6.962;2022-10-16T22:44:03;6.60;;;4.80;;
1062;SDS011;520;50.932;6.962;2022-10-16T22:47:05;5.83;;;4.37;;
1062;SDS011;520;50.932;6.962;2022-10-16T22:49:40;5.20;;;4.80;;
1062;SDS011;520;50.932;6.962;2022-10-16T22:52:20;4.60;;;4.20;;
1062;SDS011;520;50.932;6.962;2022-10-16T22:54:55;5.10;;;4.70;;
1062;SDS011;520;50.932;6.962;2022-10-16T22:57:30;4.90;;;4.40;;
1062;SDS011;520;50.932;6.962;2022-10-16T23:00:04;6.47;;;5.10;;
1062;SDS011;520;50.932;6.962;2022-10-16T23:02:47;5.07;;;4.67;;
1062;SDS011;520;50.932;6.962;2022-10-16T23:05:21;4.93;;;4.43;;
